createdAt,value
2022-10-26T00:00:01.697Z,15.30
2022-10-26T00:02:28.537Z,9.43
2022-10-26T00:04:54.773Z,5.93
2022-10-26T00:07:20.923Z,7.90
2022-10-26T00:09:47.231Z,5.20
2022-10-26T00:12:13.367Z,8.97
2022-10-26T00:14:39.502Z,5.67
2022-10-26T00:17:05.603Z,9.47
2022-10-26T00:19:34.242Z,10.87
2022-10-26T00:22:00.590Z,8.37
2022-10-26T00:24:26.770Z,8.90
2022-10-26T00:26:52.950Z,6.70
2022-10-26T00:29:19.115Z,4.17
2022-10-26T00:31:45.286Z,6.77
2022-10-26T00:34:11.800Z,6.27
2022-10-26T00:36:38.536Z,9.60
2022-10-26T00:39:04.707Z,12.33
2022-10-26T00:41:32.577Z,8.17
2022-10-26T00:43:59.363Z,7.70
2022-10-26T00:46:27.707Z,5.63
2022-10-26T00:48:56.828Z,6.77
2022-10-26T00:51:25.642Z,4.60
2022-10-26T00:53:53.254Z,10.50
2022-10-26T00:56:19.713Z,5.67
2022-10-26T00:58:46.344Z,9.40
2022-10-26T01:01:12.594Z,8.83
2022-10-26T01:03:39.022Z,3.87
2022-10-26T01:06:05.909Z,5.93
2022-10-26T01:08:32.242Z,7.17
2022-10-26T01:11:00.172Z,6.60
2022-10-26T01:13:27.287Z,5.47
2022-10-26T01:16:02.927Z,6.97
2022-10-26T01:18:38.334Z,4.20
2022-10-26T01:21:49.478Z,11.73
2022-10-26T01:24:40.121Z,8.57
2022-10-26T01:27:17.197Z,7.73
2022-10-26T01:29:58.990Z,5.97
2022-10-26T01:32:30.089Z,7.50
2022-10-26T01:35:01.250Z,9.57
2022-10-26T01:37:30.611Z,12.83
2022-10-26T01:40:01.829Z,3.77
2022-10-26T01:42:29.429Z,5.07
2022-10-26T01:44:59.306Z,2.33
2022-10-26T01:47:26.593Z,7.23
2022-10-26T01:49:55.297Z,7.33
2022-10-26T01:52:21.633Z,6.80
2022-10-26T01:54:47.827Z,4.37
2022-10-26T01:57:15.789Z,2.47
2022-10-26T01:59:53.697Z,3.57
2022-10-26T02:02:53.955Z,6.40
2022-10-26T02:05:29.489Z,6.03
2022-10-26T02:08:00.302Z,14.13
2022-10-26T02:10:32.543Z,5.73
2022-10-26T02:13:02.223Z,9.40
2022-10-26T02:15:33.860Z,7.00
2022-10-26T02:18:04.128Z,6.50
2022-10-26T02:20:33.684Z,1.80
2022-10-26T02:23:02.498Z,1.93
2022-10-26T02:25:31.037Z,7.07
2022-10-26T02:27:59.586Z,5.90
2022-10-26T02:30:25.948Z,3.70
2022-10-26T02:32:53.093Z,7.53
2022-10-26T02:35:23.508Z,7.97
2022-10-26T02:37:50.807Z,8.77
2022-10-26T02:40:20.470Z,2.83
2022-10-26T02:42:46.966Z,5.93
2022-10-26T02:45:17.451Z,4.33
2022-10-26T02:47:43.675Z,2.73
2022-10-26T02:50:09.989Z,4.70
2022-10-26T02:52:43.975Z,5.63
2022-10-26T02:55:12.273Z,4.13
2022-10-26T02:57:41.044Z,5.90
2022-10-26T03:00:08.547Z,2.80
2022-10-26T03:02:34.775Z,9.80
2022-10-26T03:05:08.915Z,4.83
2022-10-26T03:07:35.037Z,3.50
2022-10-26T03:10:01.894Z,4.53
2022-10-26T03:12:28.069Z,2.97
2022-10-26T03:14:54.179Z,7.40
2022-10-26T03:17:20.365Z,6.40
2022-10-26T03:19:46.504Z,6.97
2022-10-26T03:22:12.773Z,6.73
2022-10-26T03:24:38.957Z,7.87
2022-10-26T03:27:05.990Z,3.60
2022-10-26T03:29:32.158Z,5.60
2022-10-26T03:31:58.274Z,4.03
2022-10-26T03:34:24.466Z,5.47
2022-10-26T03:36:50.623Z,6.37
2022-10-26T03:39:16.946Z,3.07
2022-10-26T03:41:43.772Z,6.20
2022-10-26T03:44:10.590Z,12.63
2022-10-26T03:46:36.797Z,7.00
2022-10-26T03:49:03.127Z,3.13
2022-10-26T03:51:29.415Z,8.30
2022-10-26T03:53:55.646Z,3.70
2022-10-26T03:56:21.834Z,5.57
2022-10-26T03:58:48.027Z,6.60
2022-10-26T04:01:14.946Z,3.27
2022-10-26T04:03:41.251Z,7.67
2022-10-26T04:06:07.474Z,5.83
2022-10-26T04:08:33.835Z,13.20
2022-10-26T04:11:03.670Z,7.17
2022-10-26T04:13:30.925Z,7.27
2022-10-26T04:15:57.672Z,2.00
2022-10-26T04:18:24.617Z,4.30
2022-10-26T04:20:50.788Z,5.03
2022-10-26T04:23:17.995Z,3.67
2022-10-26T04:25:44.317Z,9.33
2022-10-26T04:28:11.736Z,5.50
2022-10-26T04:30:38.278Z,7.67
2022-10-26T04:33:05.288Z,5.67
2022-10-26T04:35:32.440Z,5.67
2022-10-26T04:37:59.357Z,9.97
2022-10-26T04:40:25.920Z,4.30
2022-10-26T04:42:52.573Z,3.80
2022-10-26T04:45:19.101Z,7.67
2022-10-26T04:47:45.255Z,7.27
2022-10-26T04:50:12.416Z,6.17
2022-10-26T04:52:39.612Z,10.23
2022-10-26T04:55:06.689Z,4.17
2022-10-26T04:57:33.392Z,6.40
2022-10-26T04:59:59.934Z,5.90
2022-10-26T05:02:27.006Z,5.30
2022-10-26T05:04:53.186Z,7.27
2022-10-26T05:07:19.332Z,3.00
2022-10-26T05:09:46.317Z,5.87
2022-10-26T05:12:12.525Z,6.60
2022-10-26T05:14:38.705Z,10.57
2022-10-26T05:17:05.058Z,7.63
2022-10-26T05:19:31.280Z,9.70
2022-10-26T05:21:57.434Z,5.70
2022-10-26T05:24:23.622Z,3.47
2022-10-26T05:26:50.420Z,5.30
2022-10-26T05:29:16.568Z,6.23
2022-10-26T05:31:42.743Z,2.90
2022-10-26T05:34:08.917Z,7.73
2022-10-26T05:36:35.083Z,6.17
2022-10-26T05:39:01.227Z,4.37
2022-10-26T05:41:27.393Z,6.83
2022-10-26T05:43:54.258Z,4.67
2022-10-26T05:46:20.450Z,6.93
2022-10-26T05:48:46.565Z,4.57
2022-10-26T05:51:13.458Z,7.40
2022-10-26T05:53:39.600Z,8.20
2022-10-26T05:56:16.583Z,3.47
2022-10-26T05:58:43.265Z,8.60
2022-10-26T06:01:16.850Z,8.00
2022-10-26T06:03:54.349Z,6.70
2022-10-26T06:06:22.076Z,5.27
2022-10-26T06:08:48.834Z,10.43
2022-10-26T06:11:15.457Z,4.93
2022-10-26T06:13:42.122Z,7.00
2022-10-26T06:16:26.007Z,6.73
2022-10-26T06:19:02.030Z,4.93
2022-10-26T06:21:39.680Z,9.50
2022-10-26T06:24:09.208Z,5.70
2022-10-26T06:26:40.218Z,9.20
2022-10-26T06:29:17.080Z,5.47
2022-10-26T06:31:44.075Z,6.90
2022-10-26T06:34:12.325Z,3.40
2022-10-26T06:36:38.799Z,12.20
2022-10-26T06:39:07.459Z,3.43
2022-10-26T06:41:35.392Z,9.63
2022-10-26T06:44:02.714Z,5.63
2022-10-26T06:46:35.524Z,3.80
2022-10-26T06:49:10.394Z,6.40
2022-10-26T06:51:41.652Z,3.70
2022-10-26T06:54:15.147Z,11.23
2022-10-26T06:56:41.750Z,2.87
2022-10-26T06:59:12.690Z,8.57
2022-10-26T07:01:38.946Z,6.20
2022-10-26T07:04:05.944Z,2.57
2022-10-26T07:06:34.371Z,9.33
2022-10-26T07:09:03.174Z,5.00
2022-10-26T07:11:29.291Z,11.80
2022-10-26T07:13:55.591Z,5.00
2022-10-26T07:16:22.568Z,4.57
2022-10-26T07:18:48.714Z,7.47
2022-10-26T07:21:15.529Z,2.90
2022-10-26T07:23:41.661Z,4.73
2022-10-26T07:26:07.802Z,5.83
2022-10-26T07:28:35.714Z,7.23
2022-10-26T07:31:02.012Z,6.73
2022-10-26T07:33:28.176Z,6.60
2022-10-26T07:35:55.265Z,5.40
2022-10-26T07:38:22.075Z,6.17
2022-10-26T07:40:49.669Z,7.90
2022-10-26T07:43:15.842Z,11.00
2022-10-26T07:45:42.003Z,5.90
2022-10-26T07:48:08.196Z,7.23
2022-10-26T07:50:34.359Z,3.33
2022-10-26T07:53:00.483Z,4.90
2022-10-26T07:55:27.468Z,5.90
2022-10-26T07:57:54.684Z,5.23
2022-10-26T08:00:21.759Z,3.93
2022-10-26T08:02:47.974Z,5.30
2022-10-26T08:05:14.197Z,6.77
2022-10-26T08:07:42.132Z,10.80
2022-10-26T08:10:09.071Z,5.97
2022-10-26T08:12:35.905Z,6.03
2022-10-26T08:15:02.086Z,5.87
2022-10-26T08:17:28.378Z,10.70
2022-10-26T08:19:54.524Z,3.10
2022-10-26T08:22:20.726Z,9.03
2022-10-26T08:24:46.850Z,4.40
2022-10-26T08:27:13.756Z,6.40
2022-10-26T08:29:40.513Z,5.60
2022-10-26T08:32:06.934Z,6.03
2022-10-26T08:34:33.068Z,3.27
2022-10-26T08:36:59.209Z,11.87
2022-10-26T08:39:27.734Z,9.37
2022-10-26T08:41:57.434Z,5.47
2022-10-26T08:44:26.714Z,3.70
2022-10-26T08:46:56.713Z,7.97
2022-10-26T08:49:25.599Z,8.73
2022-10-26T08:51:54.642Z,3.27
2022-10-26T08:54:32.029Z,11.17
2022-10-26T08:56:59.038Z,5.50
2022-10-26T08:59:30.795Z,6.00
2022-10-26T09:01:58.079Z,4.20
2022-10-26T09:04:26.849Z,4.97
2022-10-26T09:06:58.376Z,5.00
2022-10-26T09:09:30.506Z,7.37
2022-10-26T09:12:03.733Z,7.77
2022-10-26T09:14:39.741Z,8.13
2022-10-26T09:17:11.794Z,4.87
2022-10-26T09:19:53.818Z,12.40
2022-10-26T09:22:22.235Z,6.37
2022-10-26T09:24:52.817Z,6.73
2022-10-26T09:27:21.045Z,5.03
2022-10-26T09:29:47.983Z,7.03
2022-10-26T09:32:17.564Z,5.27
2022-10-26T09:34:47.017Z,6.53
2022-10-26T09:37:16.646Z,6.40
2022-10-26T09:39:49.517Z,7.97
2022-10-26T09:42:18.658Z,11.17
2022-10-26T09:44:49.078Z,7.87
2022-10-26T09:47:25.726Z,5.20
2022-10-26T09:49:54.969Z,6.13
2022-10-26T09:52:21.071Z,8.60
2022-10-26T09:54:47.241Z,7.37
2022-10-26T09:57:14.903Z,10.23
2022-10-26T09:59:41.297Z,5.07
2022-10-26T10:02:33.775Z,5.93
2022-10-26T10:04:59.992Z,13.53
2022-10-26T10:07:26.358Z,5.90
2022-10-26T10:10:07.005Z,7.77
2022-10-26T10:12:33.185Z,5.63
2022-10-26T10:14:59.409Z,9.93
2022-10-26T10:17:26.113Z,7.23
2022-10-26T10:19:53.020Z,7.37
2022-10-26T10:22:21.588Z,7.40
2022-10-26T10:24:54.018Z,7.27
2022-10-26T10:27:20.553Z,10.53
2022-10-26T10:29:49.024Z,7.77
2022-10-26T10:32:16.876Z,11.23
2022-10-26T10:34:44.803Z,7.63
2022-10-26T10:37:23.360Z,5.50
2022-10-26T10:39:49.600Z,4.83
2022-10-26T10:42:18.359Z,7.63
2022-10-26T10:44:45.165Z,7.57
2022-10-26T10:47:18.844Z,5.10
2022-10-26T10:49:51.399Z,10.53
2022-10-26T10:52:24.601Z,5.43
2022-10-26T10:54:55.063Z,5.90
2022-10-26T10:57:24.896Z,14.03
2022-10-26T11:00:00.159Z,6.80
2022-10-26T11:03:00.326Z,10.73
2022-10-26T11:05:48.022Z,7.23
2022-10-26T11:08:19.930Z,9.27
2022-10-26T11:10:50.011Z,6.10
2022-10-26T11:13:18.881Z,7.93
2022-10-26T11:15:48.803Z,7.37
2022-10-26T11:18:17.260Z,11.63
2022-10-26T11:20:47.501Z,8.37
2022-10-26T11:23:20.062Z,13.13
2022-10-26T11:25:49.740Z,8.73
2022-10-26T11:28:20.026Z,7.73
2022-10-26T11:30:49.364Z,8.30
2022-10-26T11:33:18.545Z,3.17
2022-10-26T11:35:46.493Z,5.73
2022-10-26T11:38:23.771Z,5.07
2022-10-26T11:41:06.178Z,9.77
2022-10-26T11:43:36.187Z,3.83
2022-10-26T11:46:05.073Z,3.73
2022-10-26T11:48:34.765Z,5.77
2022-10-26T11:51:01.654Z,9.20
2022-10-26T11:53:30.245Z,3.17
2022-10-26T11:55:57.216Z,3.97
2022-10-26T11:58:26.255Z,5.90
2022-10-26T12:00:55.118Z,3.93
2022-10-26T12:03:26.296Z,3.67
2022-10-26T12:05:53.012Z,6.03
2022-10-26T12:08:23.722Z,2.63
2022-10-26T12:10:52.438Z,4.23
2022-10-26T12:13:24.238Z,4.43
2022-10-26T12:16:08.733Z,4.00
2022-10-26T12:18:56.560Z,2.33
2022-10-26T12:21:26.107Z,6.67
2022-10-26T12:23:57.072Z,5.20
2022-10-26T12:26:39.270Z,6.47
2022-10-26T12:29:27.343Z,3.33
2022-10-26T12:31:53.554Z,3.83
2022-10-26T12:34:23.477Z,4.53
2022-10-26T12:36:52.902Z,2.20
2022-10-26T12:39:30.786Z,2.83
2022-10-26T12:41:58.393Z,1.10
2022-10-26T12:44:36.393Z,4.10
2022-10-26T12:47:02.974Z,5.90
2022-10-26T12:49:59.063Z,2.13
2022-10-26T12:52:31.512Z,9.63
2022-10-26T12:55:27.462Z,2.63
2022-10-26T12:58:02.573Z,3.20
2022-10-26T13:00:29.546Z,1.57
2022-10-26T13:03:07.897Z,6.17
2022-10-26T13:06:01.482Z,4.57
2022-10-26T13:08:27.829Z,2.40
2022-10-26T13:11:02.033Z,2.47
2022-10-26T13:13:30.530Z,5.33
2022-10-26T13:15:58.201Z,7.50
2022-10-26T13:18:24.871Z,4.17
2022-10-26T13:20:52.962Z,2.93
2022-10-26T13:23:23.503Z,3.73
2022-10-26T13:26:02.377Z,5.07
2022-10-26T13:28:42.385Z,5.50
2022-10-26T13:31:16.570Z,5.07
2022-10-26T13:33:43.723Z,3.27
2022-10-26T13:36:17.261Z,1.30
2022-10-26T13:38:45.037Z,5.07
2022-10-26T13:41:20.181Z,6.30
2022-10-26T13:43:46.733Z,6.17
2022-10-26T13:46:23.052Z,3.30
2022-10-26T13:48:49.706Z,4.33
2022-10-26T13:51:21.705Z,4.07
2022-10-26T13:53:51.688Z,8.27
2022-10-26T13:56:24.657Z,3.53
2022-10-26T13:58:55.037Z,3.20
2022-10-26T14:01:24.027Z,5.33
2022-10-26T14:03:50.461Z,9.90
2022-10-26T14:06:21.140Z,3.90
2022-10-26T14:08:48.673Z,3.07
2022-10-26T14:11:16.960Z,1.87
2022-10-26T14:13:43.138Z,6.33
2022-10-26T14:16:12.899Z,6.77
2022-10-26T14:18:42.807Z,1.93
2022-10-26T14:21:15.260Z,1.73
2022-10-26T14:23:46.510Z,3.70
2022-10-26T14:26:20.333Z,4.37
2022-10-26T14:28:49.638Z,3.73
2022-10-26T14:31:21.787Z,6.87
2022-10-26T14:33:48.714Z,4.40
2022-10-26T14:36:15.029Z,3.00
2022-10-26T14:38:44.187Z,3.07
2022-10-26T14:41:11.416Z,6.20
2022-10-26T14:43:37.870Z,5.03
2022-10-26T14:46:04.074Z,4.63
2022-10-26T14:48:31.397Z,3.53
2022-10-26T14:51:02.440Z,8.37
2022-10-26T14:53:32.822Z,6.90
2022-10-26T14:55:59.133Z,4.30
2022-10-26T15:01:16.485Z,5.30
2022-10-26T15:03:44.311Z,8.17
2022-10-26T15:06:34.332Z,4.60
2022-10-26T15:09:03.417Z,1.30
2022-10-26T15:11:31.038Z,7.20
2022-10-26T15:13:57.699Z,5.57
2022-10-26T15:16:25.289Z,8.63
2022-10-26T15:18:54.800Z,6.57
2022-10-26T15:21:23.372Z,3.70
2022-10-26T15:23:50.396Z,9.93
2022-10-26T15:26:16.976Z,2.30
2022-10-26T15:28:43.189Z,5.80
2022-10-26T15:31:31.540Z,10.67
2022-10-26T15:34:15.418Z,3.40
2022-10-26T15:36:42.425Z,5.60
2022-10-26T15:39:09.730Z,6.17
2022-10-26T15:41:40.023Z,2.93
2022-10-26T15:44:13.096Z,8.83
2022-10-26T15:46:39.815Z,7.83
2022-10-26T15:49:07.658Z,6.53
2022-10-26T15:51:34.284Z,4.40
2022-10-26T15:54:03.228Z,5.43
2022-10-26T15:56:30.438Z,6.23
2022-10-26T15:58:56.828Z,2.27
2022-10-26T16:01:24.374Z,6.13
2022-10-26T16:03:51.173Z,3.60
2022-10-26T16:06:21.178Z,10.93
2022-10-26T16:08:50.281Z,4.77
2022-10-26T16:11:16.435Z,5.43
2022-10-26T16:13:43.328Z,6.50
2022-10-26T16:16:11.185Z,4.60
2022-10-26T16:18:37.316Z,9.07
2022-10-26T16:21:03.804Z,6.03
2022-10-26T16:23:30.076Z,5.97
2022-10-26T16:25:56.177Z,7.47
2022-10-26T16:28:22.375Z,6.00
2022-10-26T16:30:49.232Z,6.97
2022-10-26T16:33:15.358Z,5.90
2022-10-26T16:35:41.516Z,3.77
2022-10-26T16:38:07.657Z,5.57
2022-10-26T16:40:33.836Z,8.37
2022-10-26T16:42:59.963Z,7.50
2022-10-26T16:45:26.110Z,15.50
2022-10-26T16:47:57.362Z,5.77
2022-10-26T16:50:23.488Z,7.13
2022-10-26T16:52:49.689Z,5.80
2022-10-26T16:55:16.078Z,8.10
2022-10-26T16:57:42.264Z,6.67
2022-10-26T17:00:09.312Z,5.07
2022-10-26T17:02:35.615Z,4.50
2022-10-26T17:05:06.028Z,5.60
2022-10-26T17:07:34.027Z,10.90
2022-10-26T17:10:00.209Z,4.83
2022-10-26T17:14:59.600Z,11.50
2022-10-26T17:17:25.771Z,3.07
2022-10-26T17:19:51.996Z,4.87
2022-10-26T17:22:18.896Z,8.40
2022-10-26T17:24:45.085Z,7.67
2022-10-26T17:27:11.365Z,4.60
2022-10-26T17:29:37.765Z,5.80
2022-10-26T17:32:04.011Z,17.63
2022-10-26T17:34:30.217Z,4.50
2022-10-26T17:36:56.364Z,4.10
2022-10-26T17:39:23.306Z,10.50
2022-10-26T17:41:49.518Z,10.23
2022-10-26T17:44:15.686Z,7.77
2022-10-26T17:46:41.997Z,8.80
2022-10-26T17:49:08.224Z,3.50
2022-10-26T17:51:34.515Z,10.80
2022-10-26T17:54:00.766Z,3.63
2022-10-26T17:56:29.030Z,9.60
2022-10-26T17:58:56.121Z,5.13
2022-10-26T18:01:22.748Z,7.70
2022-10-26T18:03:49.395Z,6.23
2022-10-26T18:06:16.707Z,5.27
2022-10-26T18:08:44.320Z,8.20
2022-10-26T18:11:12.788Z,4.37
2022-10-26T18:13:39.618Z,10.60
2022-10-26T18:16:08.034Z,8.77
2022-10-26T18:18:34.748Z,12.17
2022-10-26T18:21:01.715Z,13.30
2022-10-26T18:23:28.014Z,12.17
2022-10-26T18:26:00.387Z,10.30
2022-10-26T18:28:26.662Z,12.43
2022-10-26T18:30:53.506Z,11.67
2022-10-26T18:33:19.642Z,11.90
2022-10-26T18:35:46.312Z,19.00
2022-10-26T18:38:12.462Z,13.60
2022-10-26T18:40:38.950Z,15.80
2022-10-26T18:43:05.048Z,12.77
2022-10-26T18:45:31.734Z,10.43
2022-10-26T18:47:58.488Z,11.50
2022-10-26T18:50:25.077Z,12.30
2022-10-26T18:52:51.364Z,9.73
2022-10-26T18:55:17.504Z,9.97
2022-10-26T18:57:43.713Z,11.70
2022-10-26T19:00:11.390Z,11.60
2022-10-26T19:02:37.537Z,10.67
2022-10-26T19:05:05.240Z,10.87
2022-10-26T19:07:31.462Z,10.90
2022-10-26T19:09:57.635Z,12.47
2022-10-26T19:12:23.730Z,20.37
2022-10-26T19:14:50.754Z,14.33
2022-10-26T19:17:16.933Z,12.77
2022-10-26T19:19:43.846Z,10.40
2022-10-26T19:22:10.688Z,15.53
2022-10-26T19:24:36.813Z,15.33
2022-10-26T19:27:03.113Z,14.30
2022-10-26T19:29:29.342Z,12.77
2022-10-26T19:31:55.726Z,20.67
2022-10-26T19:34:22.178Z,12.53
2022-10-26T19:36:48.378Z,13.60
2022-10-26T19:39:16.144Z,13.97
2022-10-26T19:41:42.882Z,11.10
2022-10-26T19:44:10.012Z,21.30
2022-10-26T19:46:37.201Z,22.57
2022-10-26T19:49:03.556Z,21.73
2022-10-26T19:51:30.864Z,21.90
2022-10-26T19:54:02.090Z,15.57
2022-10-26T19:56:30.607Z,21.80
2022-10-26T19:58:56.728Z,20.87
2022-10-26T20:01:22.969Z,21.27
2022-10-26T20:03:49.185Z,17.57
2022-10-26T20:06:17.370Z,21.03
2022-10-26T20:08:45.250Z,13.67
2022-10-26T20:11:15.456Z,25.13
2022-10-26T20:13:43.540Z,16.57
2022-10-26T20:16:11.061Z,20.73
2022-10-26T20:18:37.268Z,20.93
2022-10-26T20:21:07.231Z,25.30
2022-10-26T20:23:33.448Z,55.63
2022-10-26T20:26:02.215Z,38.80
2022-10-26T20:28:28.721Z,26.17
2022-10-26T20:30:55.513Z,24.20
2022-10-26T20:33:21.655Z,20.40
2022-10-26T20:35:47.779Z,23.47
2022-10-26T20:38:17.162Z,18.20
2022-10-26T20:40:43.918Z,20.17
2022-10-26T20:43:14.094Z,20.57
2022-10-26T20:45:41.016Z,17.00
2022-10-26T20:48:11.725Z,14.43
2022-10-26T20:50:39.373Z,15.80
2022-10-26T20:53:10.637Z,12.37
2022-10-26T20:55:40.166Z,9.03
2022-10-26T20:58:11.116Z,9.93
2022-10-26T21:00:41.501Z,12.13
2022-10-26T21:03:08.357Z,10.33
2022-10-26T21:05:35.298Z,11.43
2022-10-26T21:08:01.434Z,20.63
2022-10-26T21:10:28.590Z,17.13
2022-10-26T21:12:54.734Z,19.50
2022-10-26T21:15:20.939Z,9.47
2022-10-26T21:17:47.223Z,12.37
2022-10-26T21:20:13.610Z,15.90
2022-10-26T21:22:40.373Z,19.00
2022-10-26T21:25:07.058Z,11.80
2022-10-26T21:27:33.185Z,16.90
2022-10-26T21:29:59.317Z,14.10
2022-10-26T21:32:25.481Z,14.27
2022-10-26T21:34:51.685Z,13.93
2022-10-26T21:37:17.842Z,19.53
2022-10-26T21:39:44.654Z,11.70
2022-10-26T21:42:10.768Z,13.83
2022-10-26T21:44:41.275Z,11.03
2022-10-26T21:47:08.052Z,12.23
2022-10-26T21:49:34.283Z,12.67
2022-10-26T21:52:00.489Z,12.53
2022-10-26T21:54:26.680Z,11.13
2022-10-26T21:56:53.412Z,12.37
2022-10-26T21:59:19.548Z,8.47
2022-10-26T22:01:45.765Z,12.03
2022-10-26T22:04:12.196Z,20.47
2022-10-26T22:06:38.347Z,11.90
2022-10-26T22:09:04.557Z,12.73
2022-10-26T22:11:30.988Z,12.70
2022-10-26T22:13:57.755Z,11.77
2022-10-26T22:16:26.029Z,9.40
2022-10-26T22:18:53.981Z,13.53
2022-10-26T22:21:21.381Z,15.67
2022-10-26T22:23:47.641Z,9.67
2022-10-26T22:26:15.407Z,14.87
2022-10-26T22:28:43.217Z,15.07
2022-10-26T22:31:11.424Z,12.80
2022-10-26T22:33:37.536Z,13.97
2022-10-26T22:36:04.489Z,13.87
2022-10-26T22:38:30.603Z,8.77
2022-10-26T22:40:57.331Z,13.70
2022-10-26T22:43:23.458Z,15.13
2022-10-26T22:45:58.589Z,7.63
2022-10-26T22:48:25.372Z,6.83
2022-10-26T22:50:51.508Z,6.63
2022-10-26T22:53:17.606Z,8.07
2022-10-26T22:55:44.501Z,12.07
2022-10-26T22:58:10.753Z,8.33
2022-10-26T23:00:37.027Z,9.03
2022-10-26T23:03:03.241Z,10.87
2022-10-26T23:05:30.297Z,8.50
2022-10-26T23:07:56.493Z,5.83
2022-10-26T23:10:22.921Z,10.70
2022-10-26T23:12:49.152Z,9.83
2022-10-26T23:15:15.726Z,9.33
2022-10-26T23:17:42.440Z,7.80
2022-10-26T23:20:10.239Z,9.37
2022-10-26T23:22:37.029Z,4.10
2022-10-26T23:25:03.479Z,10.37
2022-10-26T23:27:29.617Z,9.30
2022-10-26T23:29:55.761Z,10.90
2022-10-26T23:32:21.889Z,10.57
2022-10-26T23:34:47.985Z,8.87
2022-10-26T23:37:14.180Z,17.20
2022-10-26T23:39:40.966Z,7.77
2022-10-26T23:42:07.112Z,12.23
2022-10-26T23:44:33.234Z,10.07
2022-10-26T23:46:59.452Z,8.33
2022-10-26T23:49:25.605Z,8.43
2022-10-26T23:51:51.715Z,7.03
2022-10-26T23:54:17.854Z,14.10
2022-10-26T23:56:44.585Z,7.47
2022-10-26T23:59:10.702Z,8.13
